KBAM/BAM METAR and TAF weather

Enter ICAO airport designator
Station Type Date Time Source
KBAM METAR 2018/01/22 19:15 UTC NOAA

KBAM 221915Z AUTO 07004KT 10SM SCT050 BKN060 OVC070 03/00 A3028 RMK AO1


Station Type Date Time Source
KBAM Decoded METAR 2018/01/22 19:15 UTC NOAA

Station name not available
Jan 22, 2018 - 02:15 PM EST / 2018.01.22 1915 UTC
Wind: from the ENE (070 degrees) at 5 MPH (4 KT):0
Visibility: 10 mile(s):0
Sky conditions: overcast
Temperature: 37 F (3 C)
Dew Point: 32 F (0 C)
Relative Humidity: 80%
Pressure (altimeter): 30.28 in. Hg (1025 hPa)
ob: KBAM 221915Z AUTO 07004KT 10SM SCT050 BKN060 OVC070 03/00 A3028 RMK AO1
cycle: 19

Station Type Date Time Source
KBAM TAF UTC NOAA

Error!


Example: see airport list